首页
METAR-TAF:

METAR-TAF

机场 :

Oshawa Executive Airport

奧沙華, 安大略省, 加拿大

纬度: 43-55-22N, 经度: 78-53-48W, 海拔: 140米

当前天气观测

该预报发布于28分钟前的16:00 UTC
风速2节,风向多变
温度 -4°C
湿度 58%
气压 1027 hPa
能見度: 14.5公里
天空无云

METAR: CYOO 171600Z AUTO VRB02KT 9SM CLR M04/M11 A3033 RMK SLP281

时间: 11:28 (16:28 UTC)

预报

该预报发布于2小时和50分钟前的13:38 UTC
预报有效从17日的 14点(UTC)到 18日的 02点(UTC)
风速5节,风向
能見度: 10公里
多云层高于3000英尺
成为
从 17日的 14点(UTC)到 17日的 15点(UTC)
少量云层高于3000英尺
从 17日的 1900点(UTC)
风速8节,风向东转东北
能見度: 10公里
少量云层高于3000英尺
散云层高于20000英尺
从 18日的 0000点(UTC)
风速10节,风向东转东北
能見度: 10公里
多云层高于14000英尺
多云层高于22000英尺

TAF: CYOO 171338Z 1714/1802 36005KT P6SM BKN030 BECMG 1714/1715 FEW030 FM171900 06008KT P6SM FEW030 SCT200 FM180000 07010KT P6SM BKN140 BKN220 RMK FCST BASED ON AUTO OBS. NXT FCST BY 172000Z

超过4000个机场的气象观测和天气预报(METAR&TAF报告)。

可查询的气象台以黄色和红色小点在地图上表示。

将鼠标移到小点上方,可查看气象台名称。

然后点击查看天气观测和预报。

如需切换地图:点击带黑十字的绿色按钮放大地图;点击带横线的绿色按钮缩小地图;或者点击绿色箭头查看邻近地区的地图。


METAR-TAF: